Time;durP1;ratioP1;P1;durP2;ratioP2;P2;SDS_P1;SDS_P2;PMS_P1;PMS_P2;Temp;Humidity;BMP_temperature;BMP_pressure;BME280_temperature;BME280_humidity;BME280_pressure;Samples;Min_cycle;Max_cycle;Signal;HPM_P1;HPM_P2
2020/12/26 00:01:57;;;;;;;7.78;2.95;;;;;;;7.73;69.30;101430.63;4438872;32;20152;-74
2020/12/26 00:04:23;;;;;;;5.03;2.55;;;;;;;7.64;69.82;101412.66;4443454;32;20064;-74
2020/12/26 00:06:50;;;;;;;8.00;2.65;;;;;;;7.72;69.75;101405.81;4446396;32;20025;-74
2020/12/26 00:09:16;;;;;;;5.03;1.73;;;;;;;7.75;69.36;101393.78;4426622;32;20026;-73
2020/12/26 00:11:41;;;;;;;7.25;1.42;;;;;;;7.79;69.67;101383.38;4441494;32;20110;-74
2020/12/26 00:14:07;;;;;;;3.55;1.40;;;;;;;7.67;70.85;101378.22;4440469;32;20077;-74
2020/12/26 00:16:33;;;;;;;3.25;1.50;;;;;;;7.51;71.71;101364.63;4437796;32;20141;-74
2020/12/26 00:18:58;;;;;;;1.62;0.80;;;;;;;7.51;71.87;101355.44;4438379;32;20046;-74
2020/12/26 00:21:24;;;;;;;8.40;2.08;;;;;;;7.58;71.36;101361.81;4442251;32;20107;-74
2020/12/26 00:23:49;;;;;;;4.72;1.10;;;;;;;7.61;71.70;101343.41;4445147;32;20335;-74
2020/12/26 00:26:16;;;;;;;3.05;1.30;;;;;;;7.69;71.59;101336.56;4439657;32;20081;-74
2020/12/26 00:28:42;;;;;;;4.18;0.80;;;;;;;7.70;71.56;101343.81;4436328;32;20057;-74
2020/12/26 00:31:13;;;;;;;3.15;1.35;;;;;;;7.82;70.85;101354.53;4439418;32;20458;-74
2020/12/26 00:33:38;;;;;;;5.28;1.02;;;;;;;7.85;70.88;101348.13;4445693;26;20094;-75
2020/12/26 00:36:04;;;;;;;4.68;1.30;;;;;;;8.00;70.52;101353.28;4406465;32;20077;-75
2020/12/26 00:38:29;;;;;;;3.78;1.10;;;;;;;7.91;70.55;101341.72;4406116;32;20077;-77
2020/12/26 00:40:55;;;;;;;2.75;1.12;;;;;;;8.06;70.19;101351.66;4410431;32;20102;-75
2020/12/26 00:43:21;;;;;;;4.80;1.37;;;;;;;8.04;70.04;101354.06;4406460;32;20090;-76
2020/12/26 00:45:46;;;;;;;3.25;1.10;;;;;;;8.00;70.32;101347.69;4409884;32;20042;-77
2020/12/26 00:48:12;;;;;;;2.53;1.00;;;;;;;8.00;70.45;101344.88;4406861;32;20149;-74
2020/12/26 00:50:38;;;;;;;1.67;0.85;;;;;;;8.02;70.40;101331.28;4411256;32;20030;-75
2020/12/26 00:53:03;;;;;;;2.37;1.00;;;;;;;7.95;71.13;101325.69;4410030;32;20022;-76
2020/12/26 00:55:29;;;;;;;2.12;1.15;;;;;;;7.99;70.76;101320.06;4406424;32;20046;-75
2020/12/26 00:57:54;;;;;;;2.42;1.17;;;;;;;7.88;71.37;101303.28;4409883;32;20058;-76
2020/12/26 01:00:20;;;;;;;4.47;1.15;;;;;;;7.83;71.70;101298.09;4407750;32;20477;-76
2020/12/26 01:02:46;;;;;;;3.60;1.02;;;;;;;7.75;72.07;101299.34;4411720;32;20038;-77
2020/12/26 01:05:12;;;;;;;4.78;0.93;;;;;;;7.64;72.88;101295.00;4407068;32;20728;-76
2020/12/26 01:07:38;;;;;;;4.10;1.75;;;;;;;7.60;73.25;101288.59;4408208;32;20389;-75
2020/12/26 01:10:05;;;;;;;10.18;1.80;;;;;;;7.42;74.58;101285.84;4403061;32;20194;-74
2020/12/26 01:12:31;;;;;;;3.90;1.58;;;;;;;7.09;76.18;101289.09;4408330;32;20071;-75
2020/12/26 01:14:57;;;;;;;3.00;1.30;;;;;;;7.12;75.99;101290.31;4409025;32;20411;-76
2020/12/26 01:17:23;;;;;;;3.72;1.50;;;;;;;7.06;76.27;101297.50;4404907;32;20100;-75
2020/12/26 01:19:49;;;;;;;2.83;1.70;;;;;;;7.00;76.21;101299.91;4401798;32;20030;-76
2020/12/26 01:22:15;;;;;;;3.87;1.85;;;;;;;6.87;77.05;101304.31;4411400;32;20046;-75
2020/12/26 01:24:42;;;;;;;4.12;1.85;;;;;;;6.86;76.96;101313.91;4407344;32;20068;-75
2020/12/26 01:27:08;;;;;;;6.43;1.62;;;;;;;6.82;77.21;101309.50;4408334;32;20449;-77
2020/12/26 01:29:35;;;;;;;4.55;1.83;;;;;;;6.80;77.44;101309.09;4409075;32;21493;-76
2020/12/26 01:32:01;;;;;;;7.55;1.60;;;;;;;6.80;77.06;101306.28;4406580;32;20018;-76
2020/12/26 01:34:27;;;;;;;2.78;1.70;;;;;;;6.86;77.04;101299.91;4399641;32;20635;-77
2020/12/26 01:36:53;;;;;;;7.68;2.17;;;;;;;6.88;76.97;101289.12;4395213;32;20520;-75
2020/12/26 01:39:21;;;;;;;5.15;1.90;;;;;;;6.76;76.92;101297.94;4393607;32;20050;-76
2020/12/26 01:41:52;;;;;;;10.00;2.05;;;;;;;6.83;76.79;101297.09;4396621;32;20078;-77
2020/12/26 01:44:18;;;;;;;6.78;2.03;;;;;;;6.78;76.94;101289.12;4394450;32;20030;-74
2020/12/26 01:46:46;;;;;;;11.55;2.62;;;;;;;6.89;76.75;101287.94;4394508;32;20085;-75
2020/12/26 01:49:12;;;;;;;4.00;1.80;;;;;;;6.72;77.70;101279.53;4395119;32;20115;-76
2020/12/26 01:51:39;;;;;;;5.95;2.08;;;;;;;6.86;77.68;101268.34;4392385;32;20027;-76
2020/12/26 01:54:05;;;;;;;4.32;2.05;;;;;;;6.95;77.53;101280.72;4389848;32;20055;-74
2020/12/26 01:56:31;;;;;;;5.70;2.25;;;;;;;7.06;76.72;101277.94;4390122;32;20065;-74
2020/12/26 01:58:57;;;;;;;2.75;2.03;;;;;;;7.17;76.42;101275.88;4392002;32;20430;-75
2020/12/26 02:01:32;;;;;;;4.15;2.10;;;;;;;7.09;77.12;101257.53;4392185;32;20105;-77
2020/12/26 02:03:58;;;;;;;6.28;2.25;;;;;;;7.17;76.91;101261.91;4395329;32;20031;-76
2020/12/26 02:06:27;;;;;;;8.32;2.40;;;;;;;7.19;77.15;101265.91;4396321;32;20060;-77
2020/12/26 02:08:53;;;;;;;5.22;2.45;;;;;;;7.04;78.01;101267.13;4397603;32;20115;-77
2020/12/26 02:11:18;;;;;;;7.35;2.67;;;;;;;7.12;78.12;101263.09;4392879;32;20042;-75
2020/12/26 02:13:44;;;;;;;4.12;2.17;;;;;;;7.07;78.86;101259.94;4395995;32;20104;-74
2020/12/26 02:16:17;;;;;;;4.55;2.42;;;;;;;7.03;79.56;101259.91;4394189;32;20073;-75
2020/12/26 02:18:43;;;;;;;5.15;2.15;;;;;;;6.99;80.28;101249.94;4393100;32;20097;-76
2020/12/26 02:21:09;;;;;;;6.93;2.33;;;;;;;7.07;80.00;101252.34;4395729;32;20030;-74
2020/12/26 02:23:45;;;;;;;3.83;2.15;;;;;;;7.09;79.81;101258.31;4398368;32;20100;-77
2020/12/26 02:26:11;;;;;;;4.78;2.78;;;;;;;7.11;79.79;101241.94;4399284;32;20078;-77
2020/12/26 02:28:37;;;;;;;4.72;2.35;;;;;;;7.11;80.02;101241.13;4396424;32;20458;-75
2020/12/26 02:31:04;;;;;;;4.03;2.55;;;;;;;7.09;80.38;101233.13;4394385;32;20119;-75
2020/12/26 02:33:31;;;;;;;7.62;2.53;;;;;;;7.00;80.71;101227.13;4397440;32;20082;-75
2020/12/26 02:35:57;;;;;;;4.30;2.00;;;;;;;7.03;81.31;101217.16;4393148;32;20058;-75
2020/12/26 02:38:22;;;;;;;3.95;2.30;;;;;;;7.04;81.83;101201.97;4394557;32;20133;-76
2020/12/26 02:40:49;;;;;;;3.37;1.85;;;;;;;7.08;81.97;101205.53;4399488;32;20132;-77
2020/12/26 02:43:20;;;;;;;4.93;2.33;;;;;;;7.17;82.04;101194.72;4399038;32;20050;-76
2020/12/26 02:45:48;;;;;;;4.87;2.40;;;;;;;7.29;81.94;101203.50;4397320;32;20108;-75
2020/12/26 02:48:14;;;;;;;3.72;2.10;;;;;;;7.21;81.81;101212.31;4391830;32;20134;-75
2020/12/26 02:50:39;;;;;;;5.00;2.30;;;;;;;7.20;81.61;101205.09;4398004;32;20392;-76
2020/12/26 02:53:05;;;;;;;4.55;2.42;;;;;;;7.26;80.93;101200.69;4399680;32;20043;-75
2020/12/26 02:55:30;;;;;;;4.05;2.30;;;;;;;7.25;80.97;101205.50;4399661;32;20069;-76
2020/12/26 02:57:56;;;;;;;3.95;1.67;;;;;;;7.32;80.97;101188.69;4396452;32;20465;-75
2020/12/26 03:00:22;;;;;;;2.75;1.60;;;;;;;7.42;81.37;101187.03;4399746;32;20115;-76
2020/12/26 03:02:47;;;;;;;4.55;1.60;;;;;;;7.40;82.43;101184.62;4399781;32;20046;-76
2020/12/26 03:05:13;;;;;;;2.30;1.60;;;;;;;7.60;82.31;101182.16;4389117;32;20093;-76
2020/12/26 03:07:38;;;;;;;3.10;1.85;;;;;;;7.70;81.93;101181.31;4399381;32;20410;-77
2020/12/26 03:10:05;;;;;;;1.55;1.40;;;;;;;7.76;81.83;101174.88;4397430;32;20492;-76
2020/12/26 03:12:30;;;;;;;1.48;1.15;;;;;;;7.89;80.74;101169.59;4395763;32;20488;-76
2020/12/26 03:14:56;;;;;;;3.25;1.75;;;;;;;8.03;80.49;101167.50;4396532;32;20145;-77
2020/12/26 03:17:22;;;;;;;1.58;1.23;;;;;;;8.24;79.95;101160.16;4395432;32;20034;-77
2020/12/26 03:19:47;;;;;;;5.00;1.10;;;;;;;8.31;78.97;101143.28;4382603;32;20110;-76
2020/12/26 03:22:13;;;;;;;2.08;0.95;;;;;;;8.34;79.27;101143.25;4397789;32;20057;-76
2020/12/26 03:24:39;;;;;;;1.42;0.90;;;;;;;8.38;79.17;101132.81;4396382;32;20038;-74
2020/12/26 03:27:05;;;;;;;1.87;1.05;;;;;;;8.38;79.46;101132.81;4396693;32;20109;-76
2020/12/26 03:29:30;;;;;;;2.15;0.62;;;;;;;8.39;79.62;101131.59;4393296;32;20088;-75
2020/12/26 03:31:56;;;;;;;1.67;1.02;;;;;;;8.52;79.27;101129.84;4399366;32;20050;-75
2020/12/26 03:34:22;;;;;;;2.05;0.70;;;;;;;8.49;79.22;101124.28;4401825;32;20055;-75
2020/12/26 03:36:48;;;;;;;3.85;0.90;;;;;;;8.56;79.22;101107.41;4392972;32;20074;-76
2020/12/26 03:39:14;;;;;;;2.95;1.30;;;;;;;8.56;78.77;101101.78;4394317;32;20136;-77
2020/12/26 03:41:40;;;;;;;1.80;1.20;;;;;;;8.41;78.88;101097.53;4394906;32;20488;-77
2020/12/26 03:44:05;;;;;;;2.47;1.75;;;;;;;8.41;78.80;101100.31;4396181;32;20075;-76
2020/12/26 03:46:31;;;;;;;2.20;1.70;;;;;;;8.22;80.23;101096.06;4400086;32;20081;-76
2020/12/26 03:48:57;;;;;;;1.90;1.50;;;;;;;8.11;80.59;101087.72;4396104;32;20478;-78
2020/12/26 03:51:22;;;;;;;5.03;1.77;;;;;;;7.94;81.14;101074.66;4396473;32;20118;-80
2020/12/26 03:53:48;;;;;;;4.57;1.85;;;;;;;7.92;81.82;101076.31;4393552;32;20045;-75
2020/12/26 03:56:17;;;;;;;2.08;1.75;;;;;;;7.71;82.74;101059.66;4395640;32;20094;-77
2020/12/26 03:58:43;;;;;;;3.95;2.08;;;;;;;7.71;83.12;101052.03;4393138;32;20076;-76
2020/12/26 04:01:09;;;;;;;3.20;2.00;;;;;;;7.60;83.47;101051.31;4396957;32;20082;-77
2020/12/26 04:03:35;;;;;;;2.03;1.67;;;;;;;7.62;83.68;101034.91;4397152;32;20052;-76
2020/12/26 04:06:01;;;;;;;3.08;2.00;;;;;;;7.64;83.70;101038.06;4394988;32;20046;-78
2020/12/26 04:08:26;;;;;;;2.58;1.73;;;;;;;7.69;83.71;101025.62;4395572;32;20048;-75
2020/12/26 04:10:52;;;;;;;3.60;1.45;;;;;;;7.74;83.71;101020.37;4395355;32;20081;-76
2020/12/26 04:13:17;;;;;;;1.87;1.33;;;;;;;7.82;83.54;101016.31;4401508;32;20135;-78
2020/12/26 04:15:43;;;;;;;1.30;1.20;;;;;;;7.79;83.36;101005.12;4396407;32;20130;-77
2020/12/26 04:18:09;;;;;;;1.87;1.40;;;;;;;7.96;83.26;101002.19;4382638;32;20053;-76
2020/12/26 04:20:35;;;;;;;2.53;1.02;;;;;;;7.84;83.83;100997.09;4395671;32;20034;-76
2020/12/26 04:23:00;;;;;;;1.75;0.98;;;;;;;7.78;84.09;100976.34;4396544;32;20096;-73
2020/12/26 04:25:26;;;;;;;1.27;0.90;;;;;;;7.96;83.63;100976.97;4396856;32;20043;-75
2020/12/26 04:27:51;;;;;;;2.30;0.90;;;;;;;8.02;83.74;100975.31;4394945;32;20043;-76
2020/12/26 04:30:17;;;;;;;1.10;0.90;;;;;;;8.07;83.28;100977.66;4391874;32;20060;-75
2020/12/26 04:32:43;;;;;;;1.90;1.05;;;;;;;8.22;82.73;100980.31;4394922;32;20089;-74
2020/12/26 04:35:09;;;;;;;1.40;1.00;;;;;;;8.26;82.61;100975.50;4398595;32;20086;-75
2020/12/26 04:37:34;;;;;;;1.25;0.90;;;;;;;8.36;82.13;100966.16;4395309;32;20426;-75
2020/12/26 04:40:00;;;;;;;0.80;0.77;;;;;;;8.43;81.88;100966.88;4392849;32;20143;-75
2020/12/26 04:42:26;;;;;;;1.50;0.80;;;;;;;8.47;80.92;100953.59;4394694;32;20474;-75
2020/12/26 04:44:54;;;;;;;1.02;0.93;;;;;;;8.53;80.52;100946.31;4395927;32;20511;-74
2020/12/26 04:47:40;;;;;;;2.35;1.02;;;;;;;8.48;80.66;100929.97;4395627;32;20076;-77
2020/12/26 04:50:06;;;;;;;3.10;1.20;;;;;;;8.58;80.62;100931.84;4390469;32;20064;-77
2020/12/26 04:52:34;;;;;;;1.45;1.05;;;;;;;8.63;80.33;100919.34;4396701;32;20031;-77
2020/12/26 04:55:03;;;;;;;1.25;1.00;;;;;;;8.61;80.13;100933.81;4393222;32;20102;-75
2020/12/26 04:57:34;;;;;;;4.97;1.37;;;;;;;8.68;79.77;100919.66;4391072;32;20556;-76
2020/12/26 05:00:04;;;;;;;2.05;1.30;;;;;;;8.82;79.38;100924.28;4395477;32;20069;-77
2020/12/26 05:02:36;;;;;;;1.92;1.30;;;;;;;8.83;78.91;100926.69;4390988;32;20082;-74
2020/12/26 05:05:04;;;;;;;2.78;1.27;;;;;;;8.90;78.79;100929.38;4394460;32;20056;-75
2020/12/26 05:07:32;;;;;;;2.45;1.52;;;;;;;8.82;78.62;100915.88;4381207;32;20096;-77
2020/12/26 05:09:58;;;;;;;2.65;1.42;;;;;;;8.73;79.17;100910.00;4395796;32;20196;-75
2020/12/26 05:12:24;;;;;;;2.85;1.50;;;;;;;8.79;79.24;100911.09;4391962;32;20075;-78
2020/12/26 05:14:52;;;;;;;3.62;1.60;;;;;;;8.70;78.79;100905.22;4384559;32;20462;-76
2020/12/26 05:17:20;;;;;;;1.83;1.42;;;;;;;8.75;78.58;100901.97;4396655;32;20041;-74
2020/12/26 05:19:46;;;;;;;2.92;1.95;;;;;;;8.85;78.72;100903.81;4381234;32;20105;-74
2020/12/26 05:22:12;;;;;;;2.03;1.52;;;;;;;8.72;79.26;100900.81;4395649;32;20057;-77
2020/12/26 05:24:38;;;;;;;2.37;1.37;;;;;;;8.71;79.22;100884.37;4395104;32;20042;-75
2020/12/26 05:27:04;;;;;;;1.55;1.20;;;;;;;8.65;80.14;100881.25;4394804;32;20029;-74
2020/12/26 05:29:31;;;;;;;0.95;0.82;;;;;;;8.69;80.23;100876.38;4394314;32;20455;-76
2020/12/26 05:31:59;;;;;;;1.52;0.65;;;;;;;8.74;80.80;100863.91;4397677;32;20069;-76
2020/12/26 05:34:34;;;;;;;0.85;0.32;;;;;;;8.83;81.88;100856.53;4399544;32;20095;-75
2020/12/26 05:37:02;;;;;;;0.65;0.37;;;;;;;8.97;82.14;100847.91;4396922;32;20403;-76
2020/12/26 05:39:30;;;;;;;0.90;0.30;;;;;;;9.01;81.68;100834.59;4393108;32;20038;-75
2020/12/26 05:41:56;;;;;;;0.35;0.22;;;;;;;9.15;80.84;100828.75;4392798;32;20038;-75
2020/12/26 05:44:26;;;;;;;3.58;0.43;;;;;;;9.30;80.02;100832.88;4396586;32;20435;-74
2020/12/26 05:46:56;;;;;;;0.60;0.37;;;;;;;9.37;79.62;100821.53;4397237;32;20050;-75
2020/12/26 05:54:49;;;;;;;1.20;0.40;;;;;;;9.93;77.20;100819.66;3984837;32;15021796;-78
2020/12/26 05:57:16;;;;;;;0.52;0.30;;;;;;;9.93;77.20;100819.66;4443343;32;20117;-76
2020/12/26 05:59:47;;;;;;;1.17;0.40;;;;;;;9.55;78.02;100816.37;4441415;32;20033;-77
2020/12/26 06:02:17;;;;;;;0.65;0.50;;;;;;;9.51;77.69;100801.62;4440766;32;20019;-77
2020/12/26 06:04:50;;;;;;;0.52;0.30;;;;;;;9.51;77.70;100807.22;4442024;32;20022;-78
2020/12/26 06:07:21;;;;;;;2.10;0.40;;;;;;;9.58;77.15;100812.72;4440757;32;20347;-74
2020/12/26 06:09:50;;;;;;;2.92;0.45;;;;;;;9.60;77.20;100813.09;4435001;32;20484;-77
2020/12/26 06:12:17;;;;;;;1.12;0.52;;;;;;;9.61;76.99;100797.03;4439439;32;20319;-75
2020/12/26 06:14:45;;;;;;;3.70;0.80;;;;;;;9.52;77.16;100800.41;4440831;32;20364;-77
2020/12/26 06:17:11;;;;;;;0.88;0.43;;;;;;;9.57;77.19;100787.84;4441398;32;20440;-77
2020/12/26 06:19:39;;;;;;;0.73;0.40;;;;;;;9.54;77.00;100786.69;4439701;32;20466;-78
2020/12/26 06:22:05;;;;;;;1.00;0.80;;;;;;;9.58;77.19;100778.22;4441833;32;20126;-77
2020/12/26 06:24:31;;;;;;;2.58;0.80;;;;;;;9.67;76.49;100781.25;4440012;32;20414;-77
2020/12/26 06:27:01;;;;;;;0.75;0.50;;;;;;;9.63;75.95;100778.50;4441905;32;20043;-78
2020/12/26 06:29:30;;;;;;;1.75;1.10;;;;;;;9.71;75.78;100771.53;4436622;32;20330;-78
2020/12/26 06:31:57;;;;;;;3.25;0.70;;;;;;;9.67;75.67;100767.19;4441826;32;20092;-76
2020/12/26 06:34:23;;;;;;;2.85;1.98;;;;;;;9.64;75.76;100763.22;4430175;32;20139;-78
2020/12/26 06:36:55;;;;;;;2.22;0.90;;;;;;;9.53;75.62;100778.72;4427667;32;20034;-77
2020/12/26 06:39:36;;;;;;;3.03;1.60;;;;;;;9.61;75.35;100768.94;4423407;32;20725;-78
2020/12/26 06:42:19;;;;;;;2.90;1.35;;;;;;;9.59;75.09;100765.75;4426205;32;20050;-77
2020/12/26 06:44:47;;;;;;;1.92;1.15;;;;;;;9.52;75.64;100765.91;4424981;32;20099;-77
2020/12/26 06:47:34;;;;;;;2.00;1.25;;;;;;;9.64;75.15;100771.66;4422975;32;20397;-76
2020/12/26 06:52:52;;;;;;;5.53;1.20;;;;;;;10.20;73.03;100766.91;3983282;32;15024809;-76
2020/12/26 06:55:47;;;;;;;2.67;0.73;;;;;;;10.20;73.03;100766.91;4440129;32;20078;-75
2020/12/26 07:01:21;;;;;;;2.22;1.10;;;;;;;10.20;73.24;100754.84;3988362;32;15025503;-76
2020/12/26 07:03:47;;;;;;;2.25;1.50;;;;;;;10.20;73.24;100754.84;4443146;32;20184;-79
2020/12/26 07:06:49;;;;;;;1.87;1.60;;;;;;;9.75;74.28;100746.94;4441704;32;20481;-75
2020/12/26 07:09:17;;;;;;;3.10;1.98;;;;;;;9.88;73.81;100747.88;4439010;32;20037;-75
2020/12/26 07:11:52;;;;;;;3.53;1.87;;;;;;;9.86;74.19;100741.91;4442625;32;20324;-78
2020/12/26 07:14:39;;;;;;;2.92;2.22;;;;;;;9.93;73.76;100740.94;4441441;32;20032;-77
2020/12/26 07:17:06;;;;;;;2.45;1.80;;;;;;;9.95;74.19;100742.09;4440578;32;20037;-75
2020/12/26 07:22:29;;;;;;;5.12;1.50;;;;;;;10.54;72.66;100705.41;3958859;32;15730637;-75
2020/12/26 07:25:03;;;;;;;2.00;1.65;;;;;;;10.54;72.66;100705.41;4433538;32;20025;-75
2020/12/26 07:35:29;;;;;;;2.35;0.90;;;;;;;10.08;75.20;100666.34;3986848;32;15029080;-78
2020/12/26 07:37:59;;;;;;;0.98;0.80;;;;;;;9.85;75.56;100661.59;4441628;32;20037;-77
2020/12/26 07:43:04;;;;;;;1.73;0.50;;;;;;;10.23;75.48;100678.06;4000821;31;15018334;-77
2020/12/26 07:45:32;;;;;;;1.62;0.77;;;;;;;10.23;75.48;100678.06;4457880;32;20045;-76
2020/12/26 07:47:59;;;;;;;2.53;1.58;;;;;;;9.79;76.23;100659.75;4456512;32;20418;-76
2020/12/26 07:50:27;;;;;;;1.42;1.23;;;;;;;9.72;75.96;100662.72;4459064;32;20449;-76
2020/12/26 07:52:56;;;;;;;1.60;0.85;;;;;;;9.77;75.48;100667.81;4459523;32;20029;-75
2020/12/26 07:55:22;;;;;;;2.03;1.15;;;;;;;9.76;75.68;100669.84;4458436;32;20032;-76
2020/12/26 07:57:48;;;;;;;1.17;0.75;;;;;;;9.77;74.99;100656.59;4459465;32;20057;-77
2020/12/26 08:00:32;;;;;;;0.55;0.40;;;;;;;9.77;74.89;100656.59;4457157;32;20085;-75
2020/12/26 08:03:00;;;;;;;0.77;0.50;;;;;;;9.83;75.19;100654.84;4458673;32;20096;-78
2020/12/26 08:05:28;;;;;;;1.10;0.52;;;;;;;9.77;75.00;100642.53;4458041;32;20163;-77
2020/12/26 08:07:54;;;;;;;0.98;0.28;;;;;;;9.78;75.04;100639.28;4459624;32;20072;-77
2020/12/26 08:10:21;;;;;;;1.35;0.50;;;;;;;9.75;75.12;100642.19;4458795;32;20072;-76
2020/12/26 08:12:53;;;;;;;2.53;0.40;;;;;;;9.80;74.52;100644.47;4459437;32;20033;-75
2020/12/26 08:15:22;;;;;;;1.48;0.55;;;;;;;9.84;74.48;100650.81;4458918;32;20025;-75
2020/12/26 08:17:53;;;;;;;2.00;0.30;;;;;;;9.73;75.09;100641.84;4458081;32;20092;-77
2020/12/26 08:20:21;;;;;;;2.87;0.40;;;;;;;9.77;75.04;100643.34;4456275;32;20073;-75
2020/12/26 08:22:47;;;;;;;0.62;0.30;;;;;;;9.74;75.54;100637.78;4459260;32;20037;-76
2020/12/26 08:25:13;;;;;;;1.67;0.40;;;;;;;9.70;75.36;100637.09;4460270;32;20147;-78
2020/12/26 08:27:40;;;;;;;1.45;0.30;;;;;;;9.71;75.69;100633.03;4459644;32;20159;-78
2020/12/26 08:30:09;;;;;;;2.22;0.32;;;;;;;9.82;75.15;100640.00;4458517;32;20095;-76
2020/12/26 08:32:46;;;;;;;2.87;0.47;;;;;;;9.83;75.23;100658.47;4459883;32;20092;-76
2020/12/26 08:35:14;;;;;;;2.83;0.40;;;;;;;9.92;74.69;100649.44;4443584;32;20101;-75
2020/12/26 08:37:44;;;;;;;0.45;0.30;;;;;;;9.97;74.46;100641.25;4442176;32;20052;-76
2020/12/26 08:40:14;;;;;;;1.33;0.43;;;;;;;10.01;74.01;100636.34;4442512;32;20069;-77
2020/12/26 08:42:41;;;;;;;2.53;0.50;;;;;;;9.94;74.30;100627.28;4443420;32;20057;-77
2020/12/26 08:48:21;;;;;;;5.15;0.70;;;;;;;10.04;74.51;100615.78;3958261;32;15721395;-77
2020/12/26 08:50:56;;;;;;;0.68;0.40;;;;;;;10.03;73.68;100614.22;4436096;32;20059;-78
2020/12/26 08:53:23;;;;;;;1.45;0.50;;;;;;;10.08;73.62;100605.28;4438854;32;20037;-77
2020/12/26 08:55:51;;;;;;;2.10;0.40;;;;;;;10.10;73.15;100593.59;4439018;32;20422;-78
2020/12/26 08:58:33;;;;;;;2.70;0.70;;;;;;;10.13;73.48;100589.13;4434577;32;20516;-75
2020/12/26 09:03:34;;;;;;;3.70;0.60;;;;;;;10.74;71.99;100590.72;3987448;32;15021752;-76
2020/12/26 09:06:02;;;;;;;0.73;0.40;;;;;;;10.74;71.99;100590.72;4439390;32;20062;-78
2020/12/26 09:08:31;;;;;;;2.72;0.40;;;;;;;10.43;72.96;100597.19;4435810;32;20125;-76
2020/12/26 09:13:44;;;;;;;1.77;0.50;;;;;;;10.59;72.67;100560.59;3988179;32;15043501;-76
2020/12/26 09:18:47;;;;;;;2.70;0.90;;;;;;;10.90;72.85;100590.69;3986484;32;15021092;-76
2020/12/26 09:21:29;;;;;;;3.03;1.62;;;;;;;10.90;72.85;100590.69;4441297;32;20433;-75
2020/12/26 09:23:56;;;;;;;3.25;1.15;;;;;;;10.26;74.72;100573.91;4443443;32;20026;-77
2020/12/26 09:26:24;;;;;;;2.47;1.27;;;;;;;10.29;74.63;100567.41;4444746;32;20075;-75
2020/12/26 09:31:28;;;;;;;3.47;2.17;;;;;;;10.08;76.51;100562.31;3987964;32;15037689;-76
2020/12/26 09:33:55;;;;;;;6.97;3.70;;;;;;;9.92;77.31;100571.50;4436497;32;20448;-77
2020/12/26 09:36:24;;;;;;;10.88;5.47;;;;;;;9.89;77.58;100546.31;4425899;32;20063;-79
2020/12/26 09:38:51;;;;;;;12.65;7.25;;;;;;;9.78;78.09;100549.37;4420958;32;20092;-78
2020/12/26 09:43:56;;;;;;;17.55;9.52;;;;;;;9.60;77.79;100514.47;3985297;32;15038841;-78
2020/12/26 09:46:22;;;;;;;18.90;9.82;;;;;;;9.47;78.22;100524.81;4440850;32;20064;-76
2020/12/26 09:48:49;;;;;;;16.27;9.32;;;;;;;9.47;78.42;100528.44;4436967;32;20437;-75
2020/12/26 09:53:51;;;;;;;16.25;9.07;;;;;;;9.82;76.73;100527.59;3960811;32;15723489;-78
2020/12/26 09:56:17;;;;;;;19.37;10.00;;;;;;;9.82;76.73;100527.59;4434436;32;20021;-77
2020/12/26 09:58:44;;;;;;;17.20;9.48;;;;;;;9.45;77.83;100504.81;4435073;32;20025;-76
2020/12/26 10:01:13;;;;;;;14.45;7.82;;;;;;;9.47;77.80;100505.16;4435880;32;20021;-78
2020/12/26 10:03:39;;;;;;;10.60;7.00;;;;;;;9.56;78.16;100502.53;4439125;32;20030;-77
2020/12/26 10:06:09;;;;;;;13.55;6.85;;;;;;;9.52;77.85;100499.03;4437309;32;20433;-78
2020/12/26 10:08:35;;;;;;;10.02;5.82;;;;;;;9.60;77.97;100494.81;4435908;32;20107;-76
2020/12/26 10:11:01;;;;;;;11.12;5.40;;;;;;;9.63;78.16;100468.66;4434806;32;20068;-75
2020/12/26 10:13:26;;;;;;;9.13;5.25;;;;;;;9.83;77.00;100460.94;4439315;32;20104;-76
2020/12/26 10:15:52;;;;;;;10.57;3.80;;;;;;;9.83;76.60;100455.31;4436613;32;21094;-75
2020/12/26 10:18:18;;;;;;;3.28;2.05;;;;;;;9.88;76.11;100466.81;4440499;32;20045;-76
2020/12/26 10:20:43;;;;;;;4.72;2.12;;;;;;;9.95;75.64;100477.84;4435424;32;20501;-76
2020/12/26 10:23:09;;;;;;;5.20;1.48;;;;;;;10.01;75.54;100464.09;4434677;32;20150;-76
2020/12/26 10:25:36;;;;;;;2.17;1.10;;;;;;;10.18;74.99;100453.63;4436008;32;20064;-78
2020/12/26 10:28:02;;;;;;;2.83;1.20;;;;;;;10.13;73.55;100473.84;4435586;32;20056;-75
2020/12/26 10:30:27;;;;;;;4.93;0.80;;;;;;;10.12;73.68;100466.66;4434068;32;20029;-75
2020/12/26 10:32:53;;;;;;;1.27;0.80;;;;;;;10.27;73.06;100471.44;4438539;32;20152;-78
2020/12/26 10:35:19;;;;;;;2.87;0.85;;;;;;;10.42;72.73;100449.31;4438319;32;20068;-77
2020/12/26 10:37:44;;;;;;;1.80;0.95;;;;;;;10.56;72.60;100420.81;4436722;32;20177;-76
2020/12/26 10:40:10;;;;;;;3.03;0.70;;;;;;;10.61;72.00;100425.88;4434888;32;20056;-75
2020/12/26 10:42:36;;;;;;;4.82;0.80;;;;;;;10.64;70.45;100422.16;4434597;32;21261;-75
2020/12/26 10:45:02;;;;;;;1.00;0.50;;;;;;;10.66;70.69;100391.56;4435211;32;20201;-78
2020/12/26 10:47:28;;;;;;;1.70;0.47;;;;;;;10.67;69.84;100404.38;4436253;32;20087;-78
2020/12/26 10:49:53;;;;;;;0.95;0.43;;;;;;;10.75;68.72;100378.41;4433806;32;20021;-77
2020/12/26 10:52:19;;;;;;;5.25;0.93;;;;;;;10.71;68.72;100365.69;4434853;32;20529;-76
2020/12/26 10:54:45;;;;;;;1.50;0.50;;;;;;;10.82;68.00;100352.06;4436506;32;20088;-78
2020/12/26 10:57:10;;;;;;;1.80;0.40;;;;;;;10.80;68.09;100348.91;4433143;32;20041;-77
2020/12/26 10:59:36;;;;;;;3.45;0.40;;;;;;;10.94;67.62;100340.81;4434364;32;20037;-76
2020/12/26 11:02:02;;;;;;;0.85;0.47;;;;;;;11.06;66.29;100330.78;4437187;32;20038;-75
2020/12/26 11:04:29;;;;;;;3.33;0.80;;;;;;;10.87;66.43;100324.16;4427543;32;20044;-77
2020/12/26 11:06:55;;;;;;;2.67;0.73;;;;;;;11.00;66.38;100310.06;4424350;32;20081;-77
2020/12/26 11:09:20;;;;;;;1.85;0.68;;;;;;;11.09;66.28;100304.53;4424211;32;20100;-76
2020/12/26 11:11:50;;;;;;;4.40;0.60;;;;;;;10.97;66.34;100294.06;4421456;32;20064;-77
2020/12/26 11:14:17;;;;;;;2.08;0.50;;;;;;;11.07;66.30;100288.09;4426623;32;20451;-78
2020/12/26 11:16:51;;;;;;;1.98;0.68;;;;;;;11.08;66.43;100284.00;4425827;32;20088;-78
2020/12/26 11:19:17;;;;;;;1.20;0.70;;;;;;;11.15;66.44;100266.09;4420033;32;20085;-79
2020/12/26 11:21:44;;;;;;;3.45;0.82;;;;;;;11.08;67.09;100255.09;4428260;32;20148;-80
2020/12/26 11:24:11;;;;;;;3.80;0.90;;;;;;;10.77;68.61;100240.06;4423476;32;20440;-76
2020/12/26 11:26:38;;;;;;;4.05;1.00;;;;;;;10.97;68.08;100243.38;4428380;32;20067;-78
2020/12/26 11:29:04;;;;;;;2.72;1.02;;;;;;;10.85;68.26;100247.00;4422730;32;20125;-76
2020/12/26 11:31:30;;;;;;;3.15;0.73;;;;;;;10.96;68.01;100267.97;4425631;32;20026;-74
2020/12/26 11:33:55;;;;;;;2.97;1.00;;;;;;;10.90;68.32;100266.16;4420623;32;20073;-78
2020/12/26 11:36:23;;;;;;;1.52;0.60;;;;;;;10.81;68.91;100274.50;4424213;32;20021;-76
2020/12/26 11:38:50;;;;;;;3.22;1.10;;;;;;;11.03;68.54;100269.72;4425014;32;20320;-77
2020/12/26 11:41:18;;;;;;;3.30;0.88;;;;;;;10.91;68.81;100242.38;4423537;32;21047;-75
2020/12/26 11:43:44;;;;;;;2.00;0.85;;;;;;;10.84;68.72;100226.53;4423364;32;20058;-77
2020/12/26 11:46:10;;;;;;;3.83;1.20;;;;;;;10.63;69.82;100212.34;4426070;32;20079;-76
2020/12/26 11:48:36;;;;;;;4.00;0.90;;;;;;;10.67;69.36;100196.13;4423095;32;20069;-76
2020/12/26 11:51:03;;;;;;;7.68;0.95;;;;;;;10.69;69.34;100204.94;4425302;32;20041;-74
2020/12/26 11:53:28;;;;;;;3.03;1.20;;;;;;;10.68;69.67;100203.34;4428245;32;20072;-76
2020/12/26 11:55:54;;;;;;;3.08;0.90;;;;;;;10.61;69.66;100197.97;4421678;32;20069;-76
2020/12/26 11:58:23;;;;;;;3.78;1.17;;;;;;;10.60;70.00;100185.13;4423304;32;20034;-74
2020/12/26 12:00:50;;;;;;;2.90;1.10;;;;;;;10.56;70.07;100187.28;4420407;32;20049;-76
2020/12/26 12:03:16;;;;;;;5.32;1.40;;;;;;;10.69;69.65;100185.22;4423201;32;20094;-77
2020/12/26 12:05:42;;;;;;;3.25;0.98;;;;;;;10.66;69.95;100172.06;4423646;32;20281;-75
2020/12/26 12:08:08;;;;;;;3.12;1.10;;;;;;;10.61;69.81;100169.84;4424337;32;20034;-77
2020/12/26 12:10:34;;;;;;;7.90;1.00;;;;;;;10.68;69.51;100167.53;4423620;32;20104;-77
2020/12/26 12:13:00;;;;;;;3.67;1.20;;;;;;;10.86;68.94;100166.97;4424481;32;20091;-75
2020/12/26 12:15:25;;;;;;;3.00;0.93;;;;;;;10.88;69.24;100158.84;4423639;32;20045;-75